createdAt,value
2023-01-28T00:02:12.299Z,6.57
2023-01-28T00:04:39.685Z,6.46
2023-01-28T00:07:08.393Z,6.48
2023-01-28T00:09:35.583Z,6.70
2023-01-28T00:12:02.865Z,6.26
2023-01-28T00:14:30.044Z,6.12
2023-01-28T00:16:58.608Z,6.12
2023-01-28T00:19:25.744Z,6.23
2023-01-28T00:21:54.015Z,6.43
2023-01-28T00:24:21.472Z,6.71
2023-01-28T00:26:49.369Z,6.67
2023-01-28T00:29:16.839Z,6.54
2023-01-28T00:31:44.035Z,6.72
2023-01-28T00:34:12.707Z,6.45
2023-01-28T00:36:39.986Z,6.16
2023-01-28T00:39:11.846Z,6.06
2023-01-28T00:41:39.664Z,5.92
2023-01-28T00:44:09.411Z,5.63
2023-01-28T00:46:38.143Z,6.00
2023-01-28T00:49:05.690Z,6.06
2023-01-28T00:51:34.385Z,6.52
2023-01-28T00:54:01.633Z,6.57
2023-01-28T00:56:28.825Z,6.14
2023-01-28T00:58:56.095Z,6.53
2023-01-28T01:01:26.274Z,6.66
2023-01-28T01:03:54.964Z,6.41
2023-01-28T01:06:24.287Z,6.44
2023-01-28T01:08:53.588Z,6.71
2023-01-28T01:11:21.868Z,6.83
2023-01-28T01:13:54.124Z,6.84
2023-01-28T01:16:23.123Z,6.19
2023-01-28T01:18:52.685Z,6.47
2023-01-28T01:21:22.610Z,7.00
2023-01-28T01:23:50.032Z,7.18
2023-01-28T01:26:19.909Z,7.14
2023-01-28T01:28:47.484Z,7.08
2023-01-28T01:31:17.504Z,6.91
2023-01-28T01:33:47.226Z,6.93
2023-01-28T01:36:16.903Z,7.24
2023-01-28T01:38:44.105Z,7.29
2023-01-28T01:41:25.184Z,7.12
2023-01-28T01:43:54.547Z,7.29
2023-01-28T01:46:30.596Z,7.30
2023-01-28T01:49:06.944Z,7.27
2023-01-28T01:51:37.660Z,7.22
2023-01-28T01:54:05.646Z,7.33
2023-01-28T01:56:42.546Z,7.16
2023-01-28T01:59:15.884Z,7.21
2023-01-28T02:01:45.183Z,7.39
2023-01-28T02:04:19.927Z,7.33
2023-01-28T02:06:48.349Z,7.26
2023-01-28T02:09:26.241Z,7.15
2023-01-28T02:11:59.245Z,7.45
2023-01-28T02:14:32.422Z,7.15
2023-01-28T02:17:01.647Z,7.14
2023-01-28T02:19:37.509Z,7.08
2023-01-28T02:22:26.865Z,7.01
2023-01-28T02:25:24.986Z,6.83
2023-01-28T02:28:17.902Z,7.13
2023-01-28T02:30:54.942Z,7.20
2023-01-28T02:33:31.986Z,7.39
2023-01-28T02:36:09.903Z,7.16
2023-01-28T02:38:45.923Z,7.20
2023-01-28T02:41:21.683Z,7.39
2023-01-28T02:43:50.406Z,6.99
2023-01-28T02:46:33.275Z,7.36
2023-01-28T02:49:01.064Z,7.58
2023-01-28T02:51:41.130Z,7.38
2023-01-28T02:54:15.027Z,7.42
2023-01-28T02:56:56.223Z,7.63
2023-01-28T02:59:33.661Z,7.19
2023-01-28T03:02:11.501Z,7.67
2023-01-28T03:04:48.149Z,7.77
2023-01-28T03:07:18.842Z,7.86
2023-01-28T03:09:49.596Z,7.67
2023-01-28T03:12:22.163Z,7.55
2023-01-28T03:14:55.685Z,7.69
2023-01-28T03:17:30.717Z,7.82
2023-01-28T03:19:58.043Z,8.08
2023-01-28T03:22:32.783Z,7.96
2023-01-28T03:25:02.773Z,8.04
2023-01-28T03:27:40.382Z,8.23
2023-01-28T03:30:15.881Z,8.15
2023-01-28T03:32:45.686Z,7.87
2023-01-28T03:35:18.505Z,7.54
2023-01-28T03:37:46.294Z,7.81
2023-01-28T03:40:14.574Z,8.06
2023-01-28T03:42:41.684Z,7.66
2023-01-28T03:45:11.818Z,7.30
2023-01-28T03:47:38.974Z,7.27
2023-01-28T03:50:06.707Z,7.46
2023-01-28T03:52:34.003Z,7.43
2023-01-28T03:55:01.303Z,7.20
2023-01-28T03:57:29.025Z,7.46
2023-01-28T03:59:56.163Z,7.53
2023-01-28T04:02:24.769Z,7.69
2023-01-28T04:04:51.969Z,7.33
2023-01-28T04:07:19.086Z,7.52
2023-01-28T04:09:46.162Z,7.39
2023-01-28T04:12:13.302Z,7.43
2023-01-28T04:14:40.439Z,7.45
2023-01-28T04:17:07.675Z,7.39
2023-01-28T04:19:36.586Z,7.65
2023-01-28T04:22:08.409Z,7.69
2023-01-28T04:24:35.481Z,7.73
2023-01-28T04:27:02.642Z,7.82
2023-01-28T04:29:29.839Z,8.00
2023-01-28T04:31:56.924Z,7.60
2023-01-28T04:34:24.120Z,7.60
2023-01-28T04:36:52.702Z,7.70
2023-01-28T04:39:19.825Z,7.79
2023-01-28T04:41:47.022Z,7.69
2023-01-28T04:44:14.243Z,7.67
2023-01-28T04:46:41.463Z,7.51
2023-01-28T04:49:08.782Z,7.33
2023-01-28T04:51:36.007Z,7.35
2023-01-28T04:54:04.751Z,7.50
2023-01-28T04:56:31.962Z,7.39
2023-01-28T04:58:59.123Z,7.29
2023-01-28T05:01:26.514Z,7.38
2023-01-28T05:03:53.642Z,7.48
2023-01-28T05:06:20.822Z,7.44
2023-01-28T05:08:47.961Z,7.59
2023-01-28T05:11:16.667Z,7.64
2023-01-28T05:13:43.723Z,7.55
2023-01-28T05:16:10.825Z,7.39
2023-01-28T05:18:38.061Z,7.47
2023-01-28T05:21:05.843Z,7.47
2023-01-28T05:23:33.046Z,7.23
2023-01-28T05:26:00.427Z,7.26
2023-01-28T05:28:28.965Z,7.11
2023-01-28T05:30:56.174Z,7.21
2023-01-28T05:33:23.243Z,7.47
2023-01-28T05:35:50.451Z,7.42
2023-01-28T05:38:17.536Z,7.57
2023-01-28T05:40:44.743Z,7.63
2023-01-28T05:43:11.904Z,7.60
2023-01-28T05:45:40.495Z,7.64
2023-01-28T05:48:08.468Z,7.63
2023-01-28T05:50:35.743Z,7.44
2023-01-28T05:53:05.823Z,7.64
2023-01-28T05:55:33.343Z,7.58
2023-01-28T05:58:00.512Z,7.45
2023-01-28T06:00:27.878Z,7.19
2023-01-28T06:02:56.564Z,7.21
2023-01-28T06:05:23.820Z,7.44
2023-01-28T06:07:51.283Z,7.61
2023-01-28T06:10:18.679Z,7.49
2023-01-28T06:12:46.062Z,7.63
2023-01-28T06:15:13.293Z,7.55
2023-01-28T06:17:40.443Z,6.83
2023-01-28T06:20:10.923Z,7.19
2023-01-28T06:22:38.124Z,7.30
2023-01-28T06:25:06.481Z,7.15
2023-01-28T06:27:33.683Z,7.19
2023-01-28T06:30:00.763Z,7.07
2023-01-28T06:32:28.568Z,7.25
2023-01-28T06:34:56.185Z,6.84
2023-01-28T06:37:26.238Z,7.26
2023-01-28T06:39:53.582Z,7.31
2023-01-28T06:42:20.706Z,7.32
2023-01-28T06:44:47.783Z,7.03
2023-01-28T06:47:14.903Z,7.17
2023-01-28T06:49:42.064Z,6.94
2023-01-28T06:52:09.261Z,7.33
2023-01-28T06:54:37.925Z,7.37
2023-01-28T06:57:05.004Z,7.68
2023-01-28T06:59:32.126Z,7.52
2023-01-28T07:01:59.260Z,7.48
2023-01-28T07:04:26.564Z,7.48
2023-01-28T07:06:53.824Z,7.55
2023-01-28T07:09:21.070Z,7.52
2023-01-28T07:11:49.765Z,7.49
2023-01-28T07:14:16.845Z,7.43
2023-01-28T07:16:44.067Z,7.47
2023-01-28T07:19:11.265Z,7.59
2023-01-28T07:21:38.435Z,7.33
2023-01-28T07:24:06.059Z,7.38
2023-01-28T07:26:33.243Z,7.09
2023-01-28T07:29:01.779Z,7.25
2023-01-28T07:31:29.024Z,7.10
2023-01-28T07:33:56.226Z,7.24
2023-01-28T07:36:23.450Z,7.34
2023-01-28T07:38:50.503Z,7.36
2023-01-28T07:41:17.644Z,7.27
2023-01-28T07:43:44.744Z,7.32
2023-01-28T07:46:13.423Z,7.53
2023-01-28T07:48:40.542Z,7.27
2023-01-28T07:51:07.948Z,7.95
2023-01-28T07:53:35.703Z,8.49
2023-01-28T07:56:03.223Z,8.87
2023-01-28T07:58:30.423Z,8.83
2023-01-28T08:00:59.136Z,9.37
2023-01-28T08:03:28.642Z,9.20
2023-01-28T08:05:57.148Z,9.85
2023-01-28T08:08:26.620Z,10.16
2023-01-28T08:10:54.445Z,10.37
2023-01-28T08:13:21.647Z,10.73
2023-01-28T08:15:48.876Z,10.80
2023-01-28T08:18:17.370Z,11.20
2023-01-28T08:20:46.042Z,11.15
2023-01-28T08:23:15.993Z,11.63
2023-01-28T08:25:43.952Z,11.81
2023-01-28T08:28:12.884Z,11.71
2023-01-28T08:30:41.310Z,11.22
2023-01-28T08:33:11.042Z,10.91
2023-01-28T08:35:38.706Z,10.93
2023-01-28T08:38:08.821Z,11.54
2023-01-28T08:40:37.030Z,11.31
2023-01-28T08:43:05.181Z,11.74
2023-01-28T08:45:32.964Z,12.19
2023-01-28T08:48:01.737Z,12.08
2023-01-28T08:50:32.003Z,12.28
2023-01-28T08:53:00.775Z,12.43
2023-01-28T08:55:30.485Z,12.11
2023-01-28T08:57:58.756Z,11.91
2023-01-28T09:00:26.169Z,12.34
2023-01-28T09:02:53.963Z,12.68
2023-01-28T09:05:21.931Z,12.34
2023-01-28T09:07:49.644Z,12.15
2023-01-28T09:10:18.382Z,12.18
2023-01-28T09:12:47.904Z,12.52
2023-01-28T09:15:15.625Z,11.93
2023-01-28T09:17:42.685Z,12.28
2023-01-28T09:20:11.422Z,12.09
2023-01-28T09:22:38.691Z,12.19
2023-01-28T09:25:06.534Z,12.36
2023-01-28T09:27:33.926Z,12.32
2023-01-28T09:30:02.704Z,11.95
2023-01-28T09:32:29.867Z,11.90
2023-01-28T09:34:57.023Z,12.18
2023-01-28T09:37:24.254Z,12.50
2023-01-28T09:39:51.394Z,13.17
2023-01-28T09:42:47.335Z,12.74
2023-01-28T09:45:22.164Z,13.27
2023-01-28T09:47:52.811Z,13.42
2023-01-28T09:50:28.047Z,13.38
2023-01-28T09:53:01.370Z,13.31
2023-01-28T09:55:34.445Z,13.52
2023-01-28T09:58:05.564Z,13.25
2023-01-28T10:00:43.509Z,13.84
2023-01-28T10:03:40.534Z,13.50
2023-01-28T10:06:23.364Z,13.10
2023-01-28T10:09:19.304Z,12.53
2023-01-28T10:12:03.599Z,12.10
2023-01-28T10:14:45.722Z,11.48
2023-01-28T10:17:21.848Z,11.18
2023-01-28T10:19:56.648Z,11.20
2023-01-28T10:22:30.082Z,10.85
2023-01-28T10:25:00.604Z,10.90
2023-01-28T10:27:31.609Z,10.94
2023-01-28T10:30:01.022Z,10.71
2023-01-28T10:32:32.603Z,10.54
2023-01-28T10:35:00.308Z,10.57
2023-01-28T10:37:29.703Z,9.97
2023-01-28T10:40:00.220Z,9.81
2023-01-28T10:42:30.632Z,9.91
2023-01-28T10:45:02.883Z,9.75
2023-01-28T10:47:39.991Z,9.46
2023-01-28T10:50:17.910Z,9.61
2023-01-28T10:53:04.856Z,9.93
2023-01-28T10:55:38.549Z,9.51
2023-01-28T10:58:05.844Z,9.52
2023-01-28T11:00:37.166Z,9.25
2023-01-28T11:03:06.543Z,9.52
2023-01-28T11:05:33.745Z,10.32
2023-01-28T11:08:06.543Z,10.83
2023-01-28T11:10:36.169Z,11.08
2023-01-28T11:13:06.362Z,11.16
2023-01-28T11:15:33.762Z,11.35
2023-01-28T11:18:04.943Z,11.81
2023-01-28T11:20:39.065Z,11.51
2023-01-28T11:23:06.204Z,10.69
2023-01-28T11:25:36.186Z,10.51
2023-01-28T11:28:15.851Z,10.59
2023-01-28T11:30:43.191Z,9.81
2023-01-28T11:33:21.047Z,9.96
2023-01-28T11:36:20.532Z,10.13
2023-01-28T11:38:52.605Z,10.19
2023-01-28T11:41:28.370Z,10.22
2023-01-28T11:43:59.187Z,9.98
2023-01-28T11:46:50.505Z,9.77
2023-01-28T11:49:30.649Z,9.66
2023-01-28T11:52:15.586Z,9.31
2023-01-28T11:54:55.326Z,9.47
2023-01-28T11:57:26.746Z,9.66
2023-01-28T12:00:29.503Z,9.63
2023-01-28T12:03:20.855Z,9.42
2023-01-28T12:05:53.507Z,9.39
2023-01-28T12:08:40.146Z,9.46
2023-01-28T12:11:28.365Z,9.53
2023-01-28T12:14:08.391Z,9.28
2023-01-28T12:16:53.110Z,9.28
2023-01-28T12:19:51.831Z,9.58
2023-01-28T12:22:50.131Z,9.42
2023-01-28T12:25:32.646Z,9.32
2023-01-28T12:28:09.078Z,9.33
2023-01-28T12:30:58.285Z,9.34
2023-01-28T12:33:57.309Z,9.24
2023-01-28T12:36:43.609Z,9.13
2023-01-28T12:39:26.631Z,9.25
2023-01-28T12:42:05.937Z,9.15
2023-01-28T12:44:38.985Z,8.78
2023-01-28T12:47:11.029Z,8.67
2023-01-28T12:49:45.765Z,8.61
2023-01-28T12:52:21.190Z,8.86
2023-01-28T12:54:59.912Z,8.76
2023-01-28T12:57:31.565Z,9.02
2023-01-28T13:00:16.207Z,9.20
2023-01-28T13:02:53.911Z,9.18
2023-01-28T13:05:28.935Z,9.29
2023-01-28T13:08:03.433Z,9.12
2023-01-28T13:10:38.827Z,9.22
2023-01-28T13:13:16.087Z,9.17
2023-01-28T13:15:45.245Z,9.24
2023-01-28T13:18:52.648Z,9.69
2023-01-28T13:21:40.147Z,9.71
2023-01-28T13:24:31.169Z,9.59
2023-01-28T13:26:59.209Z,9.58
2023-01-28T13:29:34.711Z,9.40
2023-01-28T13:32:23.222Z,8.96
2023-01-28T13:35:00.269Z,9.18
2023-01-28T13:37:34.209Z,8.97
2023-01-28T13:40:09.406Z,9.29
2023-01-28T13:42:39.033Z,9.16
2023-01-28T13:45:24.908Z,8.99
2023-01-28T13:47:59.985Z,9.14
2023-01-28T13:50:39.548Z,9.12
2023-01-28T13:53:24.005Z,9.13
2023-01-28T13:55:57.852Z,8.92
2023-01-28T13:59:08.480Z,9.24
2023-01-28T14:02:15.484Z,9.11
2023-01-28T14:05:23.467Z,8.26
2023-01-28T14:08:26.702Z,8.39
2023-01-28T14:11:16.787Z,8.89
2023-01-28T14:14:17.490Z,8.95
2023-01-28T14:16:57.005Z,10.66
2023-01-28T14:19:30.546Z,10.40
2023-01-28T14:21:57.948Z,9.86
2023-01-28T14:24:27.364Z,9.64
2023-01-28T14:27:07.930Z,9.58
2023-01-28T14:29:49.655Z,9.34
2023-01-28T14:32:24.261Z,9.19
2023-01-28T14:34:53.248Z,9.30
2023-01-28T14:37:26.070Z,9.19
2023-01-28T14:39:59.165Z,9.08
2023-01-28T14:42:32.129Z,9.01
2023-01-28T14:45:14.383Z,8.75
2023-01-28T14:48:05.811Z,9.49
2023-01-28T14:50:55.768Z,9.71
2023-01-28T14:53:49.127Z,9.40
2023-01-28T14:56:30.606Z,9.20
2023-01-28T14:59:04.566Z,8.86
2023-01-28T15:01:32.316Z,8.95
2023-01-28T15:04:01.091Z,8.99
2023-01-28T15:06:34.830Z,8.82
2023-01-28T15:09:09.945Z,9.00
2023-01-28T15:11:41.347Z,8.76
2023-01-28T15:14:16.674Z,8.99
2023-01-28T15:16:50.793Z,8.33
2023-01-28T15:19:48.549Z,8.51
2023-01-28T15:22:19.565Z,8.47
2023-01-28T15:24:47.047Z,8.00
2023-01-28T15:27:19.748Z,8.43
2023-01-28T15:29:53.345Z,8.39
2023-01-28T15:32:26.058Z,8.29
2023-01-28T15:35:02.666Z,7.93
2023-01-28T15:37:30.624Z,8.17
2023-01-28T15:40:02.338Z,8.28
2023-01-28T15:42:29.938Z,8.44
2023-01-28T15:44:58.666Z,8.31
2023-01-28T15:47:30.937Z,8.40
2023-01-28T15:50:05.710Z,8.05
2023-01-28T15:52:36.609Z,8.38
2023-01-28T15:55:05.730Z,8.42
2023-01-28T15:57:34.963Z,8.24
2023-01-28T16:00:13.504Z,8.22
2023-01-28T16:02:45.574Z,8.22
2023-01-28T16:05:31.311Z,8.09
2023-01-28T16:08:02.269Z,8.03
2023-01-28T16:10:31.807Z,8.09
2023-01-28T16:13:13.125Z,7.89
2023-01-28T16:15:47.275Z,7.98
2023-01-28T16:18:33.205Z,7.82
2023-01-28T16:21:02.345Z,7.69
2023-01-28T16:23:29.589Z,7.83
2023-01-28T16:26:01.093Z,7.77
2023-01-28T16:28:28.606Z,7.97
2023-01-28T16:30:57.740Z,7.90
2023-01-28T16:33:26.150Z,7.65
2023-01-28T16:36:06.644Z,7.82
2023-01-28T16:38:37.375Z,7.93
2023-01-28T16:41:05.520Z,7.94
2023-01-28T16:46:09.209Z,7.90
2023-01-28T16:48:37.367Z,7.80
2023-01-28T16:51:05.679Z,7.74
2023-01-28T16:53:34.969Z,7.67
2023-01-28T16:56:08.327Z,7.77
2023-01-28T16:58:38.084Z,7.90
2023-01-28T17:01:05.751Z,7.80
2023-01-28T17:03:33.110Z,7.99
2023-01-28T17:06:00.470Z,8.04
2023-01-28T17:08:28.276Z,7.80
2023-01-28T17:10:56.666Z,8.03
2023-01-28T17:13:26.655Z,7.99
2023-01-28T17:15:54.273Z,7.69
2023-01-28T17:18:21.643Z,7.67
2023-01-28T17:20:48.906Z,7.66
2023-01-28T17:23:17.653Z,7.68
2023-01-28T17:25:44.902Z,7.85
2023-01-28T17:28:13.371Z,7.69
2023-01-28T17:30:42.387Z,7.81
2023-01-28T17:33:09.884Z,7.62
2023-01-28T17:35:37.289Z,7.24
2023-01-28T17:38:05.602Z,7.44
2023-01-28T17:40:33.470Z,7.20
2023-01-28T17:43:07.302Z,7.63
2023-01-28T17:45:34.703Z,7.75
2023-01-28T17:48:03.988Z,7.70
2023-01-28T17:50:31.487Z,7.86
2023-01-28T17:52:59.168Z,7.88
2023-01-28T17:55:42.018Z,7.69
2023-01-28T17:58:09.513Z,7.76
2023-01-28T18:00:38.149Z,7.95
2023-01-28T18:03:06.929Z,7.93
2023-01-28T18:05:35.858Z,7.58
2023-01-28T18:08:06.702Z,7.60
2023-01-28T18:10:33.864Z,7.64
2023-01-28T18:13:01.764Z,7.60
2023-01-28T18:15:28.918Z,7.86
2023-01-28T18:17:57.764Z,7.62
2023-01-28T18:20:26.964Z,7.61
2023-01-28T18:22:54.241Z,7.69
2023-01-28T18:25:22.106Z,7.80
2023-01-28T18:27:49.249Z,7.97
2023-01-28T18:30:17.125Z,7.69
2023-01-28T18:32:45.350Z,7.95
2023-01-28T18:35:12.674Z,7.71
2023-01-28T18:37:46.397Z,7.64
2023-01-28T18:40:16.575Z,7.95
2023-01-28T18:42:47.034Z,8.08
2023-01-28T18:45:15.327Z,8.02
2023-01-28T18:47:43.035Z,8.07
2023-01-28T18:50:25.142Z,7.94
2023-01-28T18:53:04.418Z,7.61
2023-01-28T18:55:45.565Z,7.80
2023-01-28T18:58:14.043Z,7.89
2023-01-28T19:00:51.431Z,7.69
2023-01-28T19:03:23.987Z,7.73
2023-01-28T19:05:52.574Z,7.77
2023-01-28T19:08:25.486Z,7.20
2023-01-28T19:11:23.740Z,7.50
2023-01-28T19:13:56.544Z,7.57
2023-01-28T19:16:28.003Z,7.69
2023-01-28T19:19:02.662Z,7.64
2023-01-28T19:21:38.601Z,7.24
2023-01-28T19:24:14.208Z,7.49
2023-01-28T19:26:44.617Z,7.70
2023-01-28T19:29:16.502Z,9.75
2023-01-28T19:31:46.469Z,11.74
2023-01-28T19:34:36.345Z,12.67
2023-01-28T19:37:06.628Z,13.50
2023-01-28T19:39:39.166Z,12.60
2023-01-28T19:42:09.403Z,11.57
2023-01-28T19:44:39.565Z,10.95
2023-01-28T19:47:06.694Z,10.44
2023-01-28T19:49:37.946Z,9.74
2023-01-28T19:52:05.213Z,9.39
2023-01-28T19:54:32.382Z,8.83
2023-01-28T19:57:02.889Z,8.53
2023-01-28T19:59:30.026Z,8.45
2023-01-28T20:01:57.365Z,8.30
2023-01-28T20:04:24.663Z,8.29
2023-01-28T20:06:53.008Z,8.15
2023-01-28T20:09:21.172Z,7.99
2023-01-28T20:11:58.145Z,7.95
2023-01-28T20:14:32.143Z,7.96
2023-01-28T20:17:01.945Z,7.96
2023-01-28T20:19:29.372Z,7.67
2023-01-28T20:21:59.064Z,7.71
2023-01-28T20:24:26.525Z,7.89
2023-01-28T20:26:58.185Z,7.47
2023-01-28T20:29:28.083Z,7.67
2023-01-28T20:32:14.811Z,7.67
2023-01-28T20:34:43.669Z,7.58
2023-01-28T20:37:11.288Z,7.75
2023-01-28T20:39:38.505Z,7.67
2023-01-28T20:42:05.867Z,7.65
2023-01-28T20:44:33.067Z,7.29
2023-01-28T20:47:03.269Z,7.30
2023-01-28T20:49:30.693Z,7.37
2023-01-28T20:51:57.863Z,7.28
2023-01-28T20:54:25.206Z,7.45
2023-01-28T20:56:54.525Z,7.07
2023-01-28T20:59:21.787Z,7.28
2023-01-28T21:01:49.305Z,7.40
2023-01-28T21:04:19.837Z,7.43
2023-01-28T21:06:47.046Z,7.33
2023-01-28T21:09:14.190Z,7.52
2023-01-28T21:11:43.084Z,7.35
2023-01-28T21:14:10.379Z,7.13
2023-01-28T21:16:37.698Z,7.10
2023-01-28T21:19:04.927Z,7.31
2023-01-28T21:21:37.786Z,6.91
2023-01-28T21:24:06.958Z,7.30
2023-01-28T21:26:34.824Z,7.33
2023-01-28T21:29:04.628Z,7.46
2023-01-28T21:31:31.903Z,7.19
2023-01-28T21:34:03.748Z,7.25
2023-01-28T21:36:31.146Z,7.36
2023-01-28T21:39:04.048Z,7.44
2023-01-28T21:41:33.922Z,7.35
2023-01-28T21:44:03.120Z,7.36
2023-01-28T21:46:33.847Z,7.33
2023-01-28T21:49:04.022Z,7.18
2023-01-28T21:51:32.471Z,7.16
2023-01-28T21:54:01.850Z,7.24
2023-01-28T21:56:34.000Z,7.30
2023-01-28T21:59:04.705Z,7.39
2023-01-28T22:01:32.025Z,7.04
2023-01-28T22:03:59.326Z,6.99
2023-01-28T22:06:26.961Z,7.18
2023-01-28T22:08:55.376Z,7.26
2023-01-28T22:11:23.906Z,7.13
2023-01-28T22:13:53.908Z,7.18
2023-01-28T22:16:21.441Z,7.32
2023-01-28T22:18:54.002Z,7.17
2023-01-28T22:21:28.211Z,7.29
2023-01-28T22:23:58.175Z,7.37
2023-01-28T22:26:31.446Z,7.24
2023-01-28T22:28:58.607Z,7.24
2023-01-28T22:31:25.772Z,7.41
2023-01-28T22:33:52.965Z,7.24
2023-01-28T22:36:20.183Z,7.24
2023-01-28T22:38:47.442Z,7.37
2023-01-28T22:41:17.243Z,7.40
2023-01-28T22:43:51.940Z,7.44
2023-01-28T22:46:24.592Z,7.43
2023-01-28T22:48:52.589Z,7.17
2023-01-28T22:51:23.769Z,7.06
2023-01-28T22:53:56.662Z,7.05
2023-01-28T22:56:28.295Z,7.31
2023-01-28T22:58:59.888Z,7.36
2023-01-28T23:01:31.389Z,7.44
2023-01-28T23:04:00.362Z,7.37
2023-01-28T23:06:33.243Z,7.27
2023-01-28T23:09:00.333Z,7.32
2023-01-28T23:11:27.838Z,7.26
2023-01-28T23:14:00.403Z,7.28
2023-01-28T23:16:35.404Z,7.19
2023-01-28T23:19:03.188Z,7.28
2023-01-28T23:21:31.391Z,7.04
2023-01-28T23:23:58.559Z,7.25
2023-01-28T23:26:26.124Z,7.17
2023-01-28T23:28:53.283Z,7.17
2023-01-28T23:31:24.502Z,6.75
2023-01-28T23:33:51.704Z,7.00
2023-01-28T23:36:21.527Z,7.02
2023-01-28T23:38:48.563Z,7.03
2023-01-28T23:41:15.663Z,7.12
2023-01-28T23:43:42.843Z,7.16
2023-01-28T23:46:10.520Z,7.15
2023-01-28T23:48:41.543Z,7.20
2023-01-28T23:51:08.822Z,7.26
2023-01-28T23:53:36.731Z,7.34
2023-01-28T23:56:05.783Z,7.06
2023-01-28T23:58:43.094Z,7.20
